KANK

Harriet Alexander Field Airport

Salida, Colorado, USA
METAR KANK 190115Z AUTO 30008G16KT 10SM CLR 04/M08 A3009 RMK AO1 T00391083
Observed Flight Rules
Dec-19 @ 01:15 UTC (6 minutes ago) Visual Flight Rules
Wind Visibility Clouds
300° at 8 knots
 Gusting to 16 knots
10 miles
  • Clear skies
Temperatures Readings
Current 4°C / 39°F
Dewpoint -8°C / 18°F
Humidity 42%
Altimeter 30.09" Hg
Pressure 1019 hPa
Elevation 2293
METAR KANK 190115Z AUTO 30008G16KT 10SM CLR 04/M08 A3009 RMK AO1 T00391083
Observed Flight Rules
Dec-19 @ 01:15 UTC
(6 minutes ago)
VFR
Wind Visibility
300° at 8 knots
 Gusting to 16 knots
10 miles
Clouds
  • Clear skies
Temperature Dewpoint
4°C / 39°F -8°C / 18°F
Humidity Altimeter Pressure
42% 30.09" Hg 1019 hPa